Here is the Quick Look data you requested

The Data originates at the National Weather Service, and is made available here by the UAlbany Department of Atmospheric and Environmental Sciences

Surface Observations

PHHI 250158Z 09009KT 070V130 10SM FEW030 27/18 A3005 RMK AO2A SLP167 T02690182
 $=
PHJH 250145Z 05013KT 15SM FEW040 28/17 A3004=
PHJR 250153Z 13009KT 10SM CLR 29/19 A3004 RMK AO2 SLP179 T02890189=
PHKO 250153Z 19012KT 10SM SCT050 28/19 A2999 RMK AO2 SLP156 T02830194=
PHLI 250153Z 06010KT 10SM SCT035 28/20 A3007 RMK AO2 SLP178 T02830200=
PHMK 250154Z 03008KT 10SM FEW030 24/18 A3004 RMK AO2 SLP174 T02440183=
PHNG 250157Z 09007KT 050V140 7SM SCT028 28/21 A3002 RMK SLP161 T02780211=
PHNL 250153Z 08009G19KT 10SM FEW027 BKN043 29/17 A3003 RMK AO2 SLP168 T02890172=
PHNY 250156Z AUTO 30008KT 10SM BKN027 BKN035 24/18 A3009 RMK AO2 SLP170
 T02390183=
PHOG 250154Z 07018G25KT 10SM FEW045 SCT060 29/17 A3000 RMK AO2 PK WND
 06028/0133 SLP162 T02940172=
PHSF 250156Z AUTO 16019G25KT 10SM CLR 19/M02 A3028 RMK AO2 SLP136 T01861021 $=
PHTO 250153Z 12007KT 10SM FEW035 BKN110 BKN220 26/18 A3004 RMK AO2 SLP171
 T02560183=
PMDY 250156Z AUTO 22012KT 10SM CLR 26/22 A2998 RMK AO2 SLP151 T02560217=